createdAt,value
2019-04-20T00:01:32.073Z,101006.22
2019-04-20T00:04:03.108Z,101005.61
2019-04-20T00:06:41.679Z,101005.99
2019-04-20T00:09:15.858Z,101007.78
2019-04-20T00:11:59.189Z,101012.49
2019-04-20T00:14:26.336Z,101002.88
2019-04-20T00:16:57.048Z,101006.58
2019-04-20T00:19:37.526Z,101004.84
2019-04-20T00:22:36.717Z,101003.37
2019-04-20T00:25:24.056Z,101003.76
2019-04-20T00:28:24.045Z,100997.34
2019-04-20T00:31:01.106Z,100995.77
2019-04-20T00:33:30.931Z,100998.17
2019-04-20T00:35:53.249Z,100998.61
2019-04-20T00:38:33.562Z,100989.79
2019-04-20T00:41:08.575Z,100995.12
2019-04-20T00:43:41.709Z,100991.38
2019-04-20T00:46:21.900Z,100989.81
2019-04-20T00:48:55.881Z,100991.53
2019-04-20T00:51:43.316Z,100991.59
2019-04-20T00:54:00.908Z,100990.06
2019-04-20T00:56:35.227Z,100995.12
2019-04-20T00:59:20.781Z,100991.70
2019-04-20T01:02:07.410Z,100992.36
2019-04-20T01:04:40.717Z,100994.08
2019-04-20T01:07:23.237Z,100994.41
2019-04-20T01:10:00.351Z,100992.70
2019-04-20T01:12:36.877Z,100993.44
2019-04-20T01:15:16.838Z,100992.20
2019-04-20T01:17:46.259Z,100993.81
2019-04-20T01:20:22.611Z,100992.02
2019-04-20T01:23:03.287Z,100997.06
2019-04-20T01:25:36.023Z,100998.83
2019-04-20T01:28:24.784Z,100990.63
2019-04-20T01:30:50.854Z,100990.28
2019-04-20T01:33:35.520Z,100995.16
2019-04-20T01:36:09.046Z,100993.25
2019-04-20T01:38:43.565Z,100995.20
2019-04-20T01:41:03.371Z,100993.55
2019-04-20T01:43:37.442Z,100988.14
2019-04-20T01:46:15.672Z,100991.86
2019-04-20T01:48:48.198Z,100991.28
2019-04-20T01:51:27.279Z,100986.30
2019-04-20T01:54:17.734Z,100987.16
2019-04-20T01:56:47.670Z,100987.31
2019-04-20T01:59:34.812Z,100994.76
2019-04-20T02:02:21.185Z,100987.33
2019-04-20T02:05:00.627Z,100996.59
2019-04-20T02:07:38.383Z,100997.04
2019-04-20T02:10:09.850Z,100988.87
2019-04-20T02:12:43.997Z,100994.03
2019-04-20T02:15:26.912Z,100997.08
2019-04-20T02:18:10.254Z,100994.16
2019-04-20T02:20:44.266Z,101000.08
2019-04-20T02:23:17.301Z,100996.09
2019-04-20T02:25:39.805Z,100991.11
2019-04-20T02:28:27.724Z,100993.65
2019-04-20T02:31:25.011Z,100983.91
2019-04-20T02:34:03.563Z,100987.33
2019-04-20T02:39:39.498Z,100984.22
2019-04-20T02:42:20.257Z,100985.63
2019-04-20T02:44:40.375Z,100985.66
2019-04-20T02:52:28.763Z,100981.77
2019-04-20T02:55:04.109Z,100977.17
2019-04-20T03:02:27.466Z,100986.81
2019-04-20T03:04:56.169Z,100985.32
2019-04-20T03:07:34.115Z,100986.56
2019-04-20T03:10:17.775Z,100987.52
2019-04-20T03:12:50.725Z,100988.50
2019-04-20T03:15:29.570Z,100982.59
2019-04-20T03:18:03.385Z,100984.89
2019-04-20T03:20:41.739Z,100985.06
2019-04-20T03:23:23.295Z,100982.05
2019-04-20T03:26:03.592Z,100977.27
2019-04-20T03:28:56.767Z,100977.33
2019-04-20T03:31:58.731Z,100977.09
2019-04-20T03:34:40.950Z,100982.90
2019-04-20T03:36:53.244Z,100985.63
2019-04-20T03:39:25.933Z,100985.86
2019-04-20T03:41:43.435Z,100984.55
2019-04-20T03:44:19.216Z,100984.16
2019-04-20T03:46:57.191Z,100989.88
2019-04-20T03:49:52.498Z,100991.95
2019-04-20T03:52:42.325Z,100994.73
2019-04-20T03:55:26.321Z,100992.44
2019-04-20T03:58:19.727Z,100996.59
2019-04-20T04:01:19.904Z,100998.64
2019-04-20T04:04:10.635Z,101003.87
2019-04-20T04:06:34.018Z,101004.33
2019-04-20T04:09:14.725Z,101008.33
2019-04-20T04:11:51.491Z,101006.77
2019-04-20T04:14:11.597Z,101002.92
2019-04-20T04:16:49.813Z,101002.21
2019-04-20T04:19:25.267Z,101003.21
2019-04-20T04:22:11.114Z,101000.55
2019-04-20T04:24:40.974Z,101001.16
2019-04-20T04:27:28.491Z,101004.47
2019-04-20T04:30:01.867Z,101003.95
2019-04-20T04:32:58.891Z,101008.89
2019-04-20T04:35:09.198Z,101008.46
2019-04-20T04:37:47.307Z,101004.79
2019-04-20T04:40:31.644Z,101012.44
2019-04-20T04:43:02.245Z,101011.02
2019-04-20T04:45:19.544Z,101008.91
2019-04-20T04:47:52.026Z,101012.05
2019-04-20T04:50:29.887Z,101016.43
2019-04-20T04:53:09.058Z,101014.42
2019-04-20T04:55:47.772Z,101011.52
2019-04-20T04:58:13.052Z,101017.81
2019-04-20T05:00:46.770Z,101014.42
2019-04-20T05:03:41.379Z,101017.80
2019-04-20T05:06:31.884Z,101022.95
2019-04-20T05:08:58.484Z,101024.63
2019-04-20T05:11:31.938Z,101020.52
2019-04-20T05:14:11.007Z,101023.08
2019-04-20T05:16:58.270Z,101024.14
2019-04-20T05:19:41.239Z,101022.23
2019-04-20T05:22:21.832Z,101032.19
2019-04-20T05:25:05.809Z,101030.69
2019-04-20T05:27:51.179Z,101027.83
2019-04-20T05:30:08.148Z,101030.22
2019-04-20T05:32:51.426Z,101028.13
2019-04-20T05:35:39.134Z,101028.88
2019-04-20T05:38:13.223Z,101015.96
2019-04-20T05:40:47.211Z,101022.83
2019-04-20T05:43:41.494Z,101018.48
2019-04-20T05:46:26.393Z,101020.66
2019-04-20T05:48:57.865Z,101027.41
2019-04-20T05:51:37.982Z,101026.63
2019-04-20T05:54:10.450Z,101027.86
2019-04-20T05:56:46.849Z,101025.56
2019-04-20T05:59:23.490Z,101029.78
2019-04-20T06:02:03.559Z,101029.44
2019-04-20T06:04:49.069Z,101031.74
2019-04-20T06:06:59.643Z,101027.77
2019-04-20T06:09:48.145Z,101027.47
2019-04-20T06:12:21.190Z,101025.43
2019-04-20T06:15:04.556Z,101024.67
2019-04-20T06:18:15.055Z,101021.80
2019-04-20T06:20:52.517Z,101020.89
2019-04-20T06:23:45.243Z,101023.23
2019-04-20T06:26:27.054Z,101020.27
2019-04-20T06:28:42.606Z,101017.38
2019-04-20T06:31:34.182Z,101012.30
2019-04-20T06:37:16.134Z,101011.31
2019-04-20T06:39:40.396Z,101008.73
2019-04-20T06:44:43.904Z,101009.42
2019-04-20T06:47:24.904Z,101007.45
2019-04-20T06:49:58.834Z,101009.57
2019-04-20T06:52:49.197Z,101009.17
2019-04-20T06:55:34.433Z,101014.31
2019-04-20T06:58:01.523Z,101003.95
2019-04-20T07:00:44.503Z,101005.90
2019-04-20T07:03:17.798Z,101003.68
2019-04-20T07:06:02.518Z,101003.67
2019-04-20T07:08:40.645Z,101003.69
2019-04-20T07:11:08.902Z,101009.34
2019-04-20T07:13:28.561Z,101003.21
2019-04-20T07:16:21.502Z,101001.88
2019-04-20T07:19:09.217Z,100998.64
2019-04-20T07:24:53.145Z,100986.58
2019-04-20T07:27:22.914Z,100986.91
2019-04-20T07:29:58.927Z,100982.42
2019-04-20T07:32:38.798Z,100985.50
2019-04-20T07:35:11.996Z,100983.65
2019-04-20T07:38:16.202Z,100977.33
2019-04-20T07:40:22.419Z,100980.17
2019-04-20T07:48:13.715Z,100980.67
2019-04-20T07:50:37.594Z,100979.17
2019-04-20T07:53:17.136Z,100983.76
2019-04-20T07:55:54.215Z,100981.67
2019-04-20T07:58:23.112Z,100978.41
2019-04-20T08:01:14.892Z,100980.11
2019-04-20T08:03:58.770Z,100978.59
2019-04-20T08:06:21.337Z,100969.52
2019-04-20T08:09:02.791Z,100969.41
2019-04-20T08:11:41.067Z,100964.20
2019-04-20T08:14:18.087Z,100966.45
2019-04-20T08:19:23.364Z,100960.66
2019-04-20T08:21:57.135Z,100959.30
2019-04-20T08:24:34.584Z,100958.58
2019-04-20T08:27:02.746Z,100958.36
2019-04-20T08:29:50.128Z,100957.22
2019-04-20T08:32:53.865Z,100950.81
2019-04-20T08:35:39.254Z,100953.19
2019-04-20T08:38:47.251Z,100948.78
2019-04-20T08:40:43.486Z,100946.75
2019-04-20T08:43:32.696Z,100945.20
2019-04-20T08:45:57.083Z,100943.25
2019-04-20T08:48:29.860Z,100944.73
2019-04-20T08:50:57.787Z,100940.16
2019-04-20T08:53:36.379Z,100933.29
2019-04-20T08:56:03.291Z,100931.75
2019-04-20T08:58:24.980Z,100931.38
2019-04-20T09:01:03.348Z,100928.98
2019-04-20T09:03:48.784Z,100923.60
2019-04-20T09:06:25.225Z,100928.34
2019-04-20T09:08:55.468Z,100923.39
2019-04-20T09:11:45.212Z,100922.06
2019-04-20T09:13:58.465Z,100917.30
2019-04-20T09:16:40.907Z,100914.08
2019-04-20T09:19:07.643Z,100915.68
2019-04-20T09:21:46.179Z,100917.08
2019-04-20T09:24:38.283Z,100910.56
2019-04-20T09:27:05.000Z,100916.11
2019-04-20T09:29:35.745Z,100911.64
2019-04-20T09:32:23.544Z,100910.85
2019-04-20T09:35:00.123Z,100906.19
2019-04-20T09:37:43.069Z,100904.73
2019-04-20T09:40:25.597Z,100909.37
2019-04-20T09:43:00.336Z,100904.23
2019-04-20T09:45:48.597Z,100900.10
2019-04-20T09:48:31.231Z,100897.05
2019-04-20T09:51:16.957Z,100896.97
2019-04-20T09:53:43.125Z,100899.05
2019-04-20T09:56:27.486Z,100892.53
2019-04-20T09:59:00.824Z,100887.09
2019-04-20T10:01:29.210Z,100885.83
2019-04-20T10:03:53.186Z,100884.68
2019-04-20T10:06:30.099Z,100890.03
2019-04-20T10:09:04.794Z,100883.67
2019-04-20T10:11:37.373Z,100875.11
2019-04-20T10:14:12.329Z,100877.14
2019-04-20T10:16:47.432Z,100872.59
2019-04-20T10:19:26.689Z,100865.60
2019-04-20T10:21:57.043Z,100869.05
2019-04-20T10:24:30.730Z,100865.95
2019-04-20T10:27:06.217Z,100866.82
2019-04-20T10:29:40.151Z,100858.23
2019-04-20T10:32:15.842Z,100856.86
2019-04-20T10:34:48.831Z,100853.03
2019-04-20T10:37:25.724Z,100850.30
2019-04-20T10:40:00.588Z,100844.52
2019-04-20T10:42:35.126Z,100844.23
2019-04-20T10:45:10.963Z,100847.27
2019-04-20T10:47:45.299Z,100842.22
2019-04-20T10:50:18.854Z,100844.97
2019-04-20T10:52:53.987Z,100843.61
2019-04-20T10:55:29.370Z,100842.06
2019-04-20T10:58:03.735Z,100844.57
2019-04-20T11:00:46.056Z,100838.94
2019-04-20T11:03:21.083Z,100831.39
2019-04-20T11:05:54.388Z,100823.45
2019-04-20T11:08:28.647Z,100834.66
2019-04-20T11:11:11.910Z,100829.01
2019-04-20T11:13:39.374Z,100822.46
2019-04-20T11:16:12.943Z,100822.45
2019-04-20T11:18:47.330Z,100822.78
2019-04-20T11:21:22.430Z,100826.59
2019-04-20T11:23:58.405Z,100818.81
2019-04-20T11:26:35.379Z,100816.06
2019-04-20T11:29:08.370Z,100828.06
2019-04-20T11:31:48.806Z,100821.72
2019-04-20T11:34:23.543Z,100811.55
2019-04-20T11:36:53.455Z,100813.73
2019-04-20T11:39:27.199Z,100806.05
2019-04-20T11:42:01.564Z,100809.44
2019-04-20T11:44:36.475Z,100811.19
2019-04-20T11:47:10.680Z,100805.64
2019-04-20T11:49:45.789Z,100799.20
2019-04-20T11:52:22.903Z,100797.47
2019-04-20T11:54:54.814Z,100793.98
2019-04-20T11:57:37.603Z,100783.39
2019-04-20T12:00:13.153Z,100781.81
2019-04-20T12:03:16.033Z,100777.36
2019-04-20T12:05:46.686Z,100768.39
2019-04-20T12:08:18.482Z,100763.53
2019-04-20T12:10:57.930Z,100748.35
2019-04-20T12:13:29.375Z,100751.06
2019-04-20T12:16:03.548Z,100746.16
2019-04-20T12:18:37.963Z,100744.66
2019-04-20T12:21:12.732Z,100748.96
2019-04-20T12:23:46.552Z,100739.81
2019-04-20T12:26:20.665Z,100732.20
2019-04-20T12:28:53.824Z,100733.59
2019-04-20T12:31:29.391Z,100724.90
2019-04-20T12:34:04.470Z,100726.70
2019-04-20T12:36:37.446Z,100724.79
2019-04-20T12:39:13.359Z,100719.32
2019-04-20T12:41:53.693Z,100714.69
2019-04-20T12:44:23.680Z,100704.41
2019-04-20T12:46:57.427Z,100701.66
2019-04-20T12:49:31.747Z,100695.58
2019-04-20T12:52:06.539Z,100691.55
2019-04-20T12:54:42.654Z,100681.58
2019-04-20T12:57:16.536Z,100685.16
2019-04-20T12:59:51.241Z,100678.59
2019-04-20T13:02:25.616Z,100675.39
2019-04-20T13:04:59.586Z,100680.30
2019-04-20T13:07:40.562Z,100672.66
2019-04-20T13:10:09.866Z,100670.58
2019-04-20T13:13:05.400Z,100669.67
2019-04-20T13:16:00.633Z,100666.88
2019-04-20T13:18:59.368Z,100661.04
2019-04-20T13:21:34.760Z,100664.94
2019-04-20T13:24:09.267Z,100655.08
2019-04-20T13:26:42.906Z,100659.02
2019-04-20T13:29:17.142Z,100658.30
2019-04-20T13:31:52.057Z,100657.37
2019-04-20T13:34:26.477Z,100643.39
2019-04-20T13:37:00.217Z,100641.00
2019-04-20T13:39:33.504Z,100646.56
2019-04-20T13:42:13.958Z,100640.63
2019-04-20T13:44:43.236Z,100640.49
2019-04-20T13:47:16.824Z,100639.86
2019-04-20T13:49:51.184Z,100634.02
2019-04-20T13:52:26.837Z,100633.80
2019-04-20T13:55:02.296Z,100631.53
2019-04-20T13:57:42.235Z,100631.86
2019-04-20T14:00:55.396Z,100632.83
2019-04-20T14:03:30.929Z,100630.05
2019-04-20T14:06:04.681Z,100626.08
2019-04-20T14:08:41.241Z,100624.66
2019-04-20T14:11:15.666Z,100620.86
2019-04-20T14:13:54.786Z,100621.67
2019-04-20T14:16:25.124Z,100612.55
2019-04-20T14:18:58.878Z,100602.76
2019-04-20T14:21:32.237Z,100618.90
2019-04-20T14:24:06.790Z,100609.01
2019-04-20T14:26:42.892Z,100608.90
2019-04-20T14:29:16.969Z,100603.53
2019-04-20T14:31:52.179Z,100605.09
2019-04-20T14:34:26.892Z,100598.98
2019-04-20T14:37:01.048Z,100595.76
2019-04-20T14:39:36.377Z,100602.33
2019-04-20T14:42:10.076Z,100596.51
2019-04-20T14:44:46.004Z,100602.16
2019-04-20T14:47:21.703Z,100591.59
2019-04-20T14:49:58.228Z,100596.73
2019-04-20T14:52:29.707Z,100594.44
2019-04-20T14:55:03.734Z,100595.77
2019-04-20T14:57:39.355Z,100593.21
2019-04-20T15:00:31.836Z,100589.44
2019-04-20T15:03:23.991Z,100588.38
2019-04-20T15:06:02.037Z,100585.20
2019-04-20T15:08:36.778Z,100582.43
2019-04-20T15:11:10.779Z,100587.86
2019-04-20T15:13:45.139Z,100583.17
2019-04-20T15:16:18.792Z,100582.18
2019-04-20T15:19:09.703Z,100575.41
2019-04-20T15:21:45.730Z,100573.14
2019-04-20T15:24:19.723Z,100579.21
2019-04-20T15:26:54.261Z,100574.97
2019-04-20T15:29:28.602Z,100572.42
2019-04-20T15:32:04.154Z,100570.89
2019-04-20T15:34:39.110Z,100566.05
2019-04-20T15:37:14.045Z,100568.64
2019-04-20T15:39:48.523Z,100574.81
2019-04-20T15:42:23.348Z,100570.83
2019-04-20T15:44:57.712Z,100569.50
2019-04-20T15:47:32.002Z,100565.98
2019-04-20T15:50:05.376Z,100567.75
2019-04-20T15:52:43.213Z,100571.45
2019-04-20T15:55:21.562Z,100568.30
2019-04-20T15:57:48.263Z,100563.36
2019-04-20T16:00:20.853Z,100563.03
2019-04-20T16:03:01.364Z,100565.37
2019-04-20T16:05:45.155Z,100564.33
2019-04-20T16:08:30.437Z,100562.16
2019-04-20T16:11:04.685Z,100562.79
2019-04-20T16:13:43.694Z,100564.62
2019-04-20T16:16:14.190Z,100559.95
2019-04-20T16:18:48.579Z,100564.73
2019-04-20T16:21:24.938Z,100558.19
2019-04-20T16:24:06.547Z,100556.47
2019-04-20T16:26:47.552Z,100554.95
2019-04-20T16:29:21.908Z,100556.72
2019-04-20T16:31:56.357Z,100558.05
2019-04-20T16:34:31.670Z,100560.53
2019-04-20T16:37:06.528Z,100560.13
2019-04-20T16:39:40.711Z,100562.08
2019-04-20T16:42:16.113Z,100556.88
2019-04-20T16:44:51.513Z,100560.09
2019-04-20T16:47:26.034Z,100563.26
2019-04-20T16:50:01.209Z,100555.78
2019-04-20T16:52:34.836Z,100556.84
2019-04-20T16:55:11.213Z,100556.80
2019-04-20T16:57:47.830Z,100558.94
2019-04-20T17:00:23.251Z,100559.20
2019-04-20T17:02:58.424Z,100557.58
2019-04-20T17:05:32.198Z,100561.97
2019-04-20T17:08:06.879Z,100554.75
2019-04-20T17:10:41.032Z,100560.98
2019-04-20T17:13:16.710Z,100561.59
2019-04-20T17:15:49.979Z,100563.19
2019-04-20T17:18:23.595Z,100563.06
2019-04-20T17:20:56.970Z,100559.78
2019-04-20T17:23:31.250Z,100557.13
2019-04-20T17:26:08.085Z,100558.72
2019-04-20T17:29:01.898Z,100557.77
2019-04-20T17:31:57.846Z,100564.95
2019-04-20T17:34:47.063Z,100566.63
2019-04-20T17:37:06.874Z,100574.62
2019-04-20T17:40:04.171Z,100571.09
2019-04-20T17:42:33.421Z,100573.02
2019-04-20T17:45:00.708Z,100573.02
2019-04-20T17:47:47.340Z,100581.83
2019-04-20T17:50:20.253Z,100578.95
2019-04-20T17:52:53.845Z,100580.59
2019-04-20T17:55:27.070Z,100575.77
2019-04-20T17:57:55.220Z,100583.48
2019-04-20T18:00:54.751Z,100585.78
2019-04-20T18:04:05.021Z,100583.23
2019-04-20T18:06:30.500Z,100580.92
2019-04-20T18:08:57.181Z,100587.98
2019-04-20T18:11:21.324Z,100589.00
2019-04-20T18:13:58.945Z,100595.16
2019-04-20T18:16:49.228Z,100593.91
2019-04-20T18:19:23.877Z,100595.80
2019-04-20T18:22:01.261Z,100599.52
2019-04-20T18:24:56.861Z,100599.88
2019-04-20T18:27:32.114Z,100597.63
2019-04-20T18:30:03.755Z,100599.55
2019-04-20T18:32:35.589Z,100597.41
2019-04-20T18:35:14.606Z,100599.77
2019-04-20T18:37:54.845Z,100601.47
2019-04-20T18:40:29.224Z,100602.21
2019-04-20T18:43:04.588Z,100606.91
2019-04-20T18:45:48.084Z,100604.63
2019-04-20T18:48:28.990Z,100600.88
2019-04-20T18:50:44.196Z,100600.21
2019-04-20T18:53:24.721Z,100598.32
2019-04-20T18:55:55.598Z,100599.89
2019-04-20T18:58:27.020Z,100596.53
2019-04-20T19:01:01.137Z,100596.33
2019-04-20T19:03:40.292Z,100596.77
2019-04-20T19:06:11.143Z,100599.00
2019-04-20T19:08:49.980Z,100605.75
2019-04-20T19:11:23.178Z,100603.96
2019-04-20T19:14:20.976Z,100606.94
2019-04-20T19:17:04.265Z,100607.02
2019-04-20T19:19:37.511Z,100609.75
2019-04-20T19:22:04.382Z,100607.48
2019-04-20T19:24:39.816Z,100605.02
2019-04-20T19:27:15.803Z,100607.45
2019-04-20T19:29:56.413Z,100608.45
2019-04-20T19:32:38.013Z,100605.89
2019-04-20T19:35:04.588Z,100605.76
2019-04-20T19:37:35.475Z,100606.13
2019-04-20T19:40:15.930Z,100605.44
2019-04-20T19:42:58.729Z,100603.87
2019-04-20T19:45:36.114Z,100598.97
2019-04-20T19:48:07.628Z,100599.23
2019-04-20T19:50:53.134Z,100601.70
2019-04-20T19:53:26.693Z,100595.47
2019-04-20T19:55:54.850Z,100595.73
2019-04-20T19:58:28.134Z,100594.45
2019-04-20T20:00:55.571Z,100596.13
2019-04-20T20:03:27.891Z,100598.24
2019-04-20T20:06:01.608Z,100596.05
2019-04-20T20:08:36.419Z,100595.66
2019-04-20T20:11:16.766Z,100599.09
2019-04-20T20:13:48.588Z,100599.61
2019-04-20T20:16:29.130Z,100603.44
2019-04-20T20:19:07.669Z,100597.86
2019-04-20T20:21:46.532Z,100598.86
2019-04-20T20:24:04.217Z,100604.76
2019-04-20T20:26:43.765Z,100599.91
2019-04-20T20:29:22.838Z,100601.59
2019-04-20T20:32:03.393Z,100608.45
2019-04-20T20:34:29.092Z,100606.95
2019-04-20T20:37:03.048Z,100605.47
2019-04-20T20:39:35.119Z,100606.04
2019-04-20T20:42:18.942Z,100612.24
2019-04-20T20:44:50.622Z,100611.64
2019-04-20T20:47:41.938Z,100616.64
2019-04-20T20:50:13.074Z,100614.59
2019-04-20T20:52:43.384Z,100613.33
2019-04-20T20:55:14.734Z,100610.77
2019-04-20T20:57:46.874Z,100606.68
2019-04-20T21:00:34.337Z,100602.31
2019-04-20T21:02:53.795Z,100604.81
2019-04-20T21:05:23.892Z,100611.69
2019-04-20T21:07:57.521Z,100606.78
2019-04-20T21:10:35.644Z,100608.48
2019-04-20T21:13:08.970Z,100602.38
2019-04-20T21:15:47.373Z,100599.63
2019-04-20T21:18:36.601Z,100603.02
2019-04-20T21:21:06.494Z,100603.05
2019-04-20T21:23:37.009Z,100606.34
2019-04-20T21:26:12.751Z,100600.64
2019-04-20T21:28:46.174Z,100598.05
2019-04-20T21:31:24.189Z,100598.98
2019-04-20T21:33:55.245Z,100597.91
2019-04-20T21:36:31.448Z,100606.31
2019-04-20T21:39:09.667Z,100603.05
2019-04-20T21:41:49.752Z,100605.22
2019-04-20T21:44:24.383Z,100607.91
2019-04-20T21:46:54.991Z,100607.33
2019-04-20T21:49:43.807Z,100601.30
2019-04-20T21:52:15.181Z,100607.00
2019-04-20T21:54:40.387Z,100603.64
2019-04-20T21:57:15.057Z,100598.03
2019-04-20T21:59:53.789Z,100604.65
2019-04-20T22:02:32.212Z,100603.73
2019-04-20T22:05:03.109Z,100604.34
2019-04-20T22:07:38.678Z,100605.40
2019-04-20T22:10:19.518Z,100607.75
2019-04-20T22:12:54.075Z,100611.36
2019-04-20T22:15:30.080Z,100608.77
2019-04-20T22:18:01.158Z,100606.67
2019-04-20T22:20:48.068Z,100604.39
2019-04-20T22:23:23.362Z,100605.54
2019-04-20T22:25:58.303Z,100608.20
2019-04-20T22:28:18.190Z,100612.41
2019-04-20T22:30:53.811Z,100612.48
2019-04-20T22:33:41.293Z,100621.11
2019-04-20T22:36:16.347Z,100614.28
2019-04-20T22:39:09.590Z,100616.59
2019-04-20T22:42:00.156Z,100617.32
2019-04-20T22:44:28.405Z,100611.38
2019-04-20T22:47:07.567Z,100613.23
2019-04-20T22:49:52.939Z,100610.64
2019-04-20T22:52:30.503Z,100607.34
2019-04-20T22:55:11.670Z,100605.80
2019-04-20T23:00:39.646Z,100597.72
2019-04-20T23:03:07.393Z,100604.41
2019-04-20T23:05:42.660Z,100599.63
2019-04-20T23:08:17.161Z,100599.84
2019-04-20T23:10:51.343Z,100595.89
2019-04-20T23:13:29.432Z,100596.30
2019-04-20T23:16:02.636Z,100590.91
2019-04-20T23:18:36.143Z,100591.82
2019-04-20T23:21:14.046Z,100582.84
2019-04-20T23:23:45.734Z,100588.40
2019-04-20T23:26:27.831Z,100586.03
2019-04-20T23:28:58.905Z,100582.25
2019-04-20T23:31:30.830Z,100582.89
2019-04-20T23:34:10.107Z,100578.61
2019-04-20T23:36:45.112Z,100575.91
2019-04-20T23:39:17.024Z,100575.62
2019-04-20T23:41:57.093Z,100573.67
2019-04-20T23:44:40.125Z,100574.52
2019-04-20T23:47:38.650Z,100573.66
2019-04-20T23:50:30.105Z,100575.47
2019-04-20T23:53:08.356Z,100574.25
2019-04-20T23:55:23.782Z,100575.47
2019-04-20T23:58:03.183Z,100572.28
